weather.gov     
National Weather Service

Terminal Aerodrome Forecast
NWS Homepage
This page is being discontinued on March 12, 2014.
The same data is available at this site. Please update your bookmarks.
Thank you, and we apologize for the inconvenience.
Please send an email to SR-SRH.Webmaster@noaa.gov with any concerns.


Current Version
Previous Version:    01  02  03  04  05  06  07  08  09  10  11  12  13  14  15  16  17  18  19  20  21  22  23  24  25  26  27  28  29  30  
   31  32  33  34  35  36  37  
[Printable]
322
FTUS43 KLBF 221700
TAFLBF
TAF
KLBF 221720Z 2218/2318 30020G27KT P6SM SCT150
     FM230000 31015G23KT P6SM BKN040
     FM230400 32017G25KT P6SM -SN BKN020 OVC040
     FM230800 32019G27KT 4SM -SN BR OVC015
     FM231200 33022G30KT 2SM -SN BR OVC010
     FM231600 33025G35KT 5SM -SN BR SCT012 OVC025=


U.S. Dept. of Commerce
NOAA National Weather Service
1325 East West Highway
Silver Spring, MD 20910
E-mail: w-nws.webmaster@noaa.gov
Page last modified: May 16, 2007
NATIONAL WEATHER SERVICE: for Safety, for Work, for Fun - FOR LIFE